< < Back
Terminal Aerodrome Forecast


Current Version              Previous Versions:   1  2  3  4  5  6  7  8  9  

Terminal Aerodrome Forecast

467
FTUS42 KFFC 241900 AAA
TAFATL
TAF AMD
KATL 241936Z 2420/2524 27005KT P6SM FEW150 SCT250
     FM250000 33005KT P6SM SKC
     FM251900 33008KT P6SM SKC=

Latest METAR

582
SAUS70 KWBC 242100 RRH
MTRATL
METAR KATL 242052Z 34005KT 10SM FEW150 23/05 A3001 RMK AO2 SLP159
T02330050 56009


USA.gov is the U.S. government's official web portal to all federal, state and local government web resources and services.